Terminal Aerodrome Forecast
Issued by NWS

Home | Current Version | Previous Version | Text Only | Print | Product List | Glossary On
Versions: 1 2 3 4 5 6 7 8 9 10 11 12 13 14 15 16 17 18 19 20 21 22 23 24 25 26 27 28 29 30 31 32 33 34 35 36 37 38 39 40 41 42 43 44 45 46 47 48 49 50
000
FTUS44 KHGX 270701 AAA
TAFUTS
TAF AMD
KUTS 270701Z 2707/2806 09004KT 6SM BR VCTS SCT009 OVC023CB
      TEMPO 2709/2711 VRB35KT 2SM TSRA BKN010CB
     FM271200 34008KT 6SM BR SCT020 BKN100
     FM271500 08005KT P6SM SCT025
     FM272100 09004KT P6SM BKN040 PROB30 2723/2803 TSRA BKN040CB
     FM280300 35005KT P6SM BKN020 BKN250=

USA.gov is the U.S. government's official web portal to all federal, state and local government web resources and services.